Wetter- und Hausseite der Bittkau's aus Magdeburg Ottersleben

Hier werden aktuelle Daten aus einer privaten Wetterstation und

lokale Wettervorhersagen bereitgestellt




Thunder radar more information blitzortung!


Rain radar more information rain snow radar



Es ist keine erhöhte Aufmerksamkeit aufgrund des Wetters notwendig.    Es gibt keine Warnungen.

METAR-Meldungen aus der Umgebung

   
EDDB - Berlin
Aktualisierung: 22.04.2021 7:20
Teilweise bewölkt  
Teilweise bewölkt  
   Wind: WNW 25.9 km/h
Wind: WNW 25.9 km/h
Temperatur: 9°C
Gefühlt: 6°C
Taupunkt: 0°C
Luftfeuchte: 54%
Luftdruck: 1019 hPa
Bewölkt: Teilweise bewölkt
Sichtbarkeit: More than 10 km
Bewölkung: Teilweise bewölkt 1463 m
EDDB 221720Z 30014KT 9999 SCT048CB 09/00 Q1019 TEMPO 29015G25KT
EDDP - Leipzig
Aktualisierung: 22.04.2021 7:20
Klar  
Klar  
   Wind: NW 27.8 km/h
Wind: NW 27.8 km/h
Temperatur: 9°C
Gefühlt: 6°C
Taupunkt: 0°C
Luftfeuchte: 54%
Luftdruck: 1022 hPa
Sichtbarkeit: More than 10 km
Bewölkung: Klar
EDDP 221720Z 31015KT CAVOK 09/M00 Q1022 TEMPO 30015G25KT
EDDC - Dresden
Aktualisierung: 22.04.2021 7:20
Klar  
Klar  
   Wind: WNW 18.5 km/h
Wind: WNW 18.5 km/h
Temperatur: 8°C
Gefühlt: 5°C
Taupunkt: -1°C
Luftfeuchte: 53%
Luftdruck: 1020 hPa
Sichtbarkeit: More than 10 km
Bewölkung: Klar
EDDC 221720Z 29010KT 260V330 CAVOK 08/M01 Q1020 NOSIG
EDDE - Erfurt
Aktualisierung: 22.04.2021 7:20
Klar  
Klar  
   Wind: NNW 18.5 km/h
Wind: NNW 18.5 km/h
Temperatur: 8°C
Gefühlt: 5°C
Taupunkt: -1°C
Luftfeuchte: 53%
Luftdruck: 1022 hPa
Sichtbarkeit: More than 10 km
Bewölkung: Klar
EDDE 221720Z 33010KT CAVOK 08/M01 Q1022 NOSIG
EDVE - Braunschweig
Aktualisierung: 22.04.2021 7:20
Stark bewölkt  
Stark bewölkt  
   Wind: WNW 16.7 km/h
Wind: WNW 16.7 km/h
Temperatur: 9°C
Gefühlt: 7°C
Taupunkt: -1°C
Luftfeuchte: 50%
Luftdruck: 1023 hPa
Bewölkt: Stark bewölkt
Sichtbarkeit: More than 10 km
Bewölkung: Stark bewölkt 1493.5 m
EDVE 221720Z 30009KT 9999 BKN049 09/M01 Q1023
EDDV - Hannover
Aktualisierung: 22.04.2021 7:20
Klar  
Klar  
   Wind: NW 25.9 km/h
Wind: NW 25.9 km/h
Temperatur: 9°C
Gefühlt: 6°C
Taupunkt: 0°C
Luftfeuchte: 54%
Luftdruck: 1024 hPa
Sichtbarkeit: More than 10 km
Bewölkung: Klar
EDDV 221720Z 32014KT 290V350 CAVOK 09/M00 Q1024 TEMPO 32015G25KT
EDDE - Schwerin
Aktualisierung: 22.04.2021 7:20
Klar  
Klar  
   Wind: NNW 18.5 km/h
Wind: NNW 18.5 km/h
Temperatur: 8°C
Gefühlt: 5°C
Taupunkt: -1°C
Luftfeuchte: 53%
Luftdruck: 1022 hPa
Sichtbarkeit: More than 10 km
Bewölkung: Klar
EDDE 221720Z 33010KT CAVOK 08/M01 Q1022 NOSIG
EDHI - Hamburg
Aktualisierung: 22.04.2021 7:20
leicht bewölkt  
leicht bewölkt  
   Wind: WNW 29.6 km/h
Wind: WNW 29.6 km/h
Temperatur: 8°C
Gefühlt: 4°C
Taupunkt: 2°C
Luftfeuchte: 66%
Luftdruck: 1023 hPa
Bewölkt: leicht bewölkt
Sichtbarkeit: More than 10 km
Bewölkung: leicht bewölkt 792.5 m
EDHI 221720Z 30016KT 9999 FEW026 08/02 Q1023
EDDK - Köln-Bonn
Aktualisierung: 22.04.2021 7:20
Klar  
Klar  
   Wind: NW 22.2 km/h
Wind: NW 22.2 km/h
Temperatur: 12°C
Taupunkt: 0°C
Luftfeuchte: 44%
Luftdruck: 1024 hPa
Sichtbarkeit: More than 10 km
Bewölkung: Klar
EDDK 221720Z 31012KT CAVOK 12/00 Q1024 NOSIG

Script entwickelt von  Saratoga-weather.org Angepasst für das Template von  Weerstation Leuven

Sie finden die Wetterinfo auch auf:

Wetternetzwerk Deutschland

European Weather Network

Weather Underground

Regionalwetter-SA

wetter.com

wxforum.de

Genutzte Hardware, Software und WEB Anbieter:

Wetterstation
Ventus W928-Ultimate

Wetterprogramm
Meteohub

WetterComputer
RaspberryPI

Anbieter

Ventus W928-Ultimate

Meteohub

RaspberryPI